createdAt,value
2022-08-01T00:01:22.654Z,2.00
2022-08-01T00:03:49.723Z,1.83
2022-08-01T00:06:16.643Z,2.22
2022-08-01T00:08:45.462Z,1.98
2022-08-01T00:11:12.435Z,2.20
2022-08-01T00:13:39.320Z,2.38
2022-08-01T00:16:06.371Z,2.10
2022-08-01T00:18:33.377Z,1.95
2022-08-01T00:21:01.308Z,2.20
2022-08-01T00:23:29.279Z,2.80
2022-08-01T00:25:56.185Z,2.67
2022-08-01T00:28:23.063Z,2.95
2022-08-01T00:30:50.049Z,3.20
2022-08-01T00:33:17.069Z,3.63
2022-08-01T00:35:45.416Z,3.80
2022-08-01T00:38:14.472Z,3.55
2022-08-01T00:40:41.508Z,4.18
2022-08-01T00:43:08.651Z,4.68
2022-08-01T00:45:36.620Z,3.90
2022-08-01T00:48:03.896Z,3.60
2022-08-01T00:50:31.216Z,4.43
2022-08-01T00:52:59.870Z,3.92
2022-08-01T00:55:28.441Z,3.92
2022-08-01T00:58:05.831Z,3.85
2022-08-01T01:00:53.231Z,3.55
2022-08-01T01:03:26.416Z,3.63
2022-08-01T01:06:41.399Z,3.38
2022-08-01T01:09:35.392Z,3.00
2022-08-01T01:12:23.265Z,3.60
2022-08-01T01:15:03.029Z,3.10
2022-08-01T01:17:51.094Z,3.40
2022-08-01T01:20:25.020Z,2.97
2022-08-01T01:23:13.172Z,3.45
2022-08-01T01:26:07.029Z,4.18
2022-08-01T01:28:47.529Z,4.95
2022-08-01T01:31:15.696Z,5.72
2022-08-01T01:33:45.352Z,5.43
2022-08-01T01:36:17.798Z,5.65
2022-08-01T01:38:48.614Z,6.30
2022-08-01T01:41:18.060Z,6.20
2022-08-01T01:43:47.259Z,6.95
2022-08-01T01:46:20.120Z,6.50
2022-08-01T01:48:48.693Z,6.07
2022-08-01T01:51:16.893Z,6.80
2022-08-01T01:53:45.475Z,6.13
2022-08-01T01:56:14.968Z,6.90
2022-08-01T01:58:44.458Z,7.97
2022-08-01T02:01:14.336Z,8.60
2022-08-01T02:03:44.368Z,7.88
2022-08-01T02:06:14.756Z,9.65
2022-08-01T02:08:43.535Z,9.32
2022-08-01T02:11:20.150Z,10.13
2022-08-01T02:14:03.821Z,9.82
2022-08-01T02:16:35.261Z,9.77
2022-08-01T02:19:05.481Z,9.57
2022-08-01T02:21:44.383Z,9.45
2022-08-01T02:24:30.526Z,9.23
2022-08-01T02:27:02.816Z,9.20
2022-08-01T02:30:15.455Z,10.18
2022-08-01T02:32:47.647Z,9.60
2022-08-01T02:35:23.242Z,10.40
2022-08-01T02:37:51.083Z,10.13
2022-08-01T02:40:19.244Z,11.85
2022-08-01T02:42:52.130Z,11.57
2022-08-01T02:45:21.832Z,13.43
2022-08-01T02:47:50.399Z,12.50
2022-08-01T02:50:19.047Z,12.27
2022-08-01T02:52:51.426Z,13.05
2022-08-01T02:57:52.220Z,11.75
2022-08-01T03:00:25.890Z,12.05
2022-08-01T03:02:56.036Z,11.60
2022-08-01T03:05:25.026Z,12.15
2022-08-01T03:07:56.111Z,12.07
2022-08-01T03:10:30.735Z,12.57
2022-08-01T03:13:01.372Z,11.60
2022-08-01T03:15:31.972Z,12.52
2022-08-01T03:18:01.891Z,11.80
2022-08-01T03:20:31.606Z,12.13
2022-08-01T03:23:00.906Z,12.40
2022-08-01T03:25:30.097Z,13.13
2022-08-01T03:28:00.315Z,12.52
2022-08-01T03:30:28.829Z,13.15
2022-08-01T03:32:56.591Z,13.30
2022-08-01T03:35:27.217Z,14.32
2022-08-01T03:38:15.800Z,14.45
2022-08-01T03:40:50.549Z,13.55
2022-08-01T03:43:21.541Z,14.05
2022-08-01T03:45:52.557Z,14.18
2022-08-01T03:48:22.414Z,15.38
2022-08-01T03:50:52.409Z,15.18
2022-08-01T03:53:26.825Z,15.35
2022-08-01T03:55:55.180Z,14.45
2022-08-01T03:58:23.496Z,15.32
2022-08-01T04:00:51.679Z,15.10
2022-08-01T04:03:19.171Z,16.10
2022-08-01T04:05:46.159Z,15.60
2022-08-01T04:08:13.111Z,15.73
2022-08-01T04:10:40.108Z,16.73
2022-08-01T04:13:07.005Z,17.92
2022-08-01T04:15:37.123Z,19.52
2022-08-01T04:18:04.155Z,19.02
2022-08-01T04:20:33.848Z,19.63
2022-08-01T04:23:03.404Z,19.55
2022-08-01T04:25:40.734Z,19.58
2022-08-01T04:28:18.439Z,17.73
2022-08-01T04:30:49.931Z,16.58
2022-08-01T04:33:19.145Z,18.05
2022-08-01T04:36:03.596Z,17.80
2022-08-01T04:38:38.638Z,15.15
2022-08-01T04:41:09.308Z,17.23
2022-08-01T04:43:38.427Z,17.00
2022-08-01T04:46:07.772Z,18.35
2022-08-01T04:48:37.542Z,18.33
2022-08-01T04:51:05.654Z,18.90
2022-08-01T04:53:33.529Z,18.15
2022-08-01T04:56:22.716Z,21.20
2022-08-01T04:59:09.776Z,23.08
2022-08-01T05:01:49.743Z,20.52
2022-08-01T05:04:16.720Z,21.10
2022-08-01T05:06:44.597Z,19.95
2022-08-01T05:09:11.476Z,18.40
2022-08-01T05:11:39.194Z,18.60
2022-08-01T05:14:07.632Z,17.98
2022-08-01T05:16:34.576Z,18.45
2022-08-01T05:19:01.449Z,18.00
2022-08-01T05:21:28.273Z,19.15
2022-08-01T05:23:55.104Z,19.02
2022-08-01T05:26:22.954Z,19.63
2022-08-01T05:28:50.255Z,19.17
2022-08-01T05:31:17.293Z,19.30
2022-08-01T05:33:44.769Z,18.65
2022-08-01T05:36:11.747Z,18.65
2022-08-01T05:38:39.699Z,19.30
2022-08-01T05:41:06.845Z,17.90
2022-08-01T05:43:33.790Z,18.15
2022-08-01T05:46:01.988Z,15.38
2022-08-01T05:48:28.904Z,14.77
2022-08-01T05:50:58.559Z,12.77
2022-08-01T05:53:26.767Z,11.73
2022-08-01T05:55:53.651Z,12.65
2022-08-01T05:58:20.621Z,14.15
2022-08-01T06:00:48.917Z,11.13
2022-08-01T06:03:15.901Z,9.77
2022-08-01T06:05:42.746Z,9.48
2022-08-01T06:08:12.788Z,9.73
2022-08-01T06:10:39.626Z,8.57
2022-08-01T06:13:07.036Z,8.38
2022-08-01T06:15:37.486Z,8.15
2022-08-01T06:18:05.742Z,7.90
2022-08-01T06:20:32.993Z,8.18
2022-08-01T06:23:01.106Z,8.38
2022-08-01T06:25:34.354Z,9.60
2022-08-01T06:28:01.670Z,10.70
2022-08-01T06:30:28.810Z,10.05
2022-08-01T06:32:59.552Z,10.15
2022-08-01T06:35:27.073Z,9.82
2022-08-01T06:37:55.083Z,9.10
2022-08-01T06:40:24.601Z,9.65
2022-08-01T06:42:51.701Z,9.70
2022-08-01T06:45:19.698Z,10.48
2022-08-01T06:47:50.519Z,9.45
2022-08-01T06:50:19.740Z,9.40
2022-08-01T06:52:46.693Z,8.57
2022-08-01T06:55:13.658Z,7.97
2022-08-01T06:57:51.696Z,6.82
2022-08-01T07:00:23.306Z,7.55
2022-08-01T07:02:55.573Z,6.67
2022-08-01T07:05:23.567Z,7.75
2022-08-01T07:07:50.812Z,8.65
2022-08-01T07:10:18.141Z,8.05
2022-08-01T07:12:47.115Z,7.70
2022-08-01T07:15:14.681Z,6.95
2022-08-01T07:17:45.201Z,6.85
2022-08-01T07:20:16.408Z,7.05
2022-08-01T07:22:43.643Z,7.67
2022-08-01T07:25:14.985Z,6.63
2022-08-01T07:27:42.934Z,6.85
2022-08-01T07:30:11.156Z,6.03
2022-08-01T07:32:38.235Z,6.15
2022-08-01T07:35:05.532Z,5.63
2022-08-01T07:37:45.556Z,6.05
2022-08-01T07:40:17.070Z,6.63
2022-08-01T07:42:46.066Z,6.35
2022-08-01T07:45:16.918Z,6.50
2022-08-01T07:47:43.977Z,5.60
2022-08-01T07:50:11.136Z,7.15
2022-08-01T07:52:38.086Z,6.40
2022-08-01T07:55:06.918Z,9.48
2022-08-01T07:57:33.848Z,8.57
2022-08-01T08:00:01.147Z,9.18
2022-08-01T08:02:33.681Z,8.38
2022-08-01T08:05:02.145Z,8.02
2022-08-01T08:07:29.045Z,7.50
2022-08-01T08:09:57.177Z,6.50
2022-08-01T08:12:28.687Z,7.47
2022-08-01T08:14:57.676Z,5.35
2022-08-01T08:17:26.245Z,5.50
2022-08-01T08:19:53.151Z,4.72
2022-08-01T08:22:22.151Z,4.50
2022-08-01T08:24:49.049Z,4.55
2022-08-01T08:27:16.507Z,4.35
2022-08-01T08:29:43.634Z,4.35
2022-08-01T08:32:12.099Z,3.83
2022-08-01T08:34:40.200Z,3.72
2022-08-01T08:37:08.354Z,3.50
2022-08-01T08:39:41.783Z,2.78
2022-08-01T08:42:12.891Z,2.90
2022-08-01T08:44:44.623Z,2.53
2022-08-01T08:47:20.135Z,2.58
2022-08-01T08:49:50.000Z,3.08
2022-08-01T08:52:20.745Z,11.52
2022-08-01T08:54:49.426Z,8.23
2022-08-01T08:57:17.071Z,3.35
2022-08-01T08:59:45.274Z,3.63
2022-08-01T09:02:13.415Z,2.42
2022-08-01T09:04:41.895Z,2.70
2022-08-01T09:07:09.736Z,2.47
2022-08-01T09:09:41.531Z,2.17
2022-08-01T09:12:09.559Z,2.13
2022-08-01T09:14:46.467Z,2.58
2022-08-01T09:17:13.780Z,2.10
2022-08-01T09:19:42.111Z,1.65
2022-08-01T09:22:13.094Z,1.67
2022-08-01T09:24:41.627Z,1.33
2022-08-01T09:27:24.211Z,1.60
2022-08-01T09:30:00.464Z,2.10
2022-08-01T09:32:35.853Z,2.17
2022-08-01T09:35:31.092Z,3.08
2022-08-01T09:38:24.491Z,1.90
2022-08-01T09:40:55.697Z,2.53
2022-08-01T09:43:28.112Z,2.80
2022-08-01T09:48:28.690Z,2.70
2022-08-01T09:51:07.085Z,2.55
2022-08-01T09:53:52.540Z,2.42
2022-08-01T09:56:22.730Z,1.95
2022-08-01T09:59:01.083Z,2.10
2022-08-01T10:01:45.043Z,1.90
2022-08-01T10:04:18.569Z,2.17
2022-08-01T10:06:50.616Z,1.70
2022-08-01T10:12:15.090Z,1.27
2022-08-01T10:14:46.986Z,1.10
2022-08-01T10:17:20.834Z,1.20
2022-08-01T10:19:51.535Z,1.40
2022-08-01T10:22:25.284Z,1.35
2022-08-01T10:24:56.601Z,1.52
2022-08-01T10:27:38.406Z,1.58
2022-08-01T10:30:19.994Z,1.58
2022-08-01T10:32:54.974Z,1.52
2022-08-01T10:35:45.810Z,1.52
2022-08-01T10:38:14.166Z,1.52
2022-08-01T10:40:42.797Z,1.40
2022-08-01T10:43:12.475Z,1.30
2022-08-01T10:45:41.193Z,1.30
2022-08-01T10:48:36.289Z,1.73
2022-08-01T10:51:17.816Z,0.85
2022-08-01T10:53:54.322Z,0.90
2022-08-01T10:56:27.147Z,1.08
2022-08-01T10:59:06.552Z,1.10
2022-08-01T11:01:45.555Z,1.15
2022-08-01T11:04:21.835Z,1.00
2022-08-01T11:07:10.051Z,1.05
2022-08-01T11:10:00.155Z,1.23
2022-08-01T11:12:46.655Z,1.08
2022-08-01T11:18:37.531Z,1.40
2022-08-01T11:21:59.378Z,1.10
2022-08-01T11:23:59.711Z,0.95
2022-08-01T11:30:13.284Z,1.30
2022-08-01T11:33:10.467Z,1.20
2022-08-01T11:36:12.886Z,0.90
2022-08-01T11:39:13.824Z,1.10
2022-08-01T11:41:44.955Z,1.30
2022-08-01T11:44:30.504Z,0.90
2022-08-01T11:47:11.612Z,0.98
2022-08-01T11:49:49.259Z,0.90
2022-08-01T11:52:43.176Z,1.00
2022-08-01T11:55:11.850Z,1.23
2022-08-01T11:57:46.091Z,1.00
2022-08-01T12:02:47.046Z,0.90
2022-08-01T12:05:17.617Z,1.23
2022-08-01T12:07:49.241Z,0.98
2022-08-01T12:10:19.251Z,1.13
2022-08-01T12:12:51.672Z,1.00
2022-08-01T12:15:23.731Z,1.08
2022-08-01T12:20:32.621Z,1.10
2022-08-01T12:23:04.295Z,1.30
2022-08-01T12:25:31.483Z,1.15
2022-08-01T12:28:03.689Z,1.20
2022-08-01T12:30:36.458Z,1.30
2022-08-01T12:33:09.326Z,1.15
2022-08-01T12:35:39.835Z,1.17
2022-08-01T12:38:28.904Z,0.88
2022-08-01T12:40:56.625Z,0.93
2022-08-01T12:43:29.508Z,1.10
2022-08-01T12:46:01.169Z,1.00
2022-08-01T12:48:31.503Z,1.25
2022-08-01T12:51:02.044Z,1.08
2022-08-01T12:53:40.306Z,1.02
2022-08-01T12:56:09.156Z,1.00
2022-08-01T12:58:36.475Z,1.10
2022-08-01T13:01:07.265Z,1.17
2022-08-01T13:03:34.885Z,1.45
2022-08-01T13:06:01.943Z,1.02
2022-08-01T13:08:34.470Z,1.13
2022-08-01T13:11:06.369Z,1.17
2022-08-01T13:13:51.255Z,1.00
2022-08-01T13:16:31.258Z,1.23
2022-08-01T13:19:08.023Z,1.08
2022-08-01T13:21:53.031Z,1.38
2022-08-01T13:24:25.303Z,1.23
2022-08-01T13:26:54.222Z,1.20
2022-08-01T13:29:24.034Z,1.38
2022-08-01T13:31:51.476Z,1.13
2022-08-01T13:34:18.419Z,1.33
2022-08-01T13:36:49.438Z,1.30
2022-08-01T13:39:35.279Z,1.17
2022-08-01T13:42:03.691Z,1.23
2022-08-01T13:44:31.490Z,1.20
2022-08-01T13:46:58.360Z,1.40
2022-08-01T13:49:25.248Z,1.40
2022-08-01T13:52:07.557Z,1.30
2022-08-01T13:54:37.405Z,1.27
2022-08-01T13:57:04.631Z,1.20
2022-08-01T13:59:32.590Z,1.17
2022-08-01T14:01:59.461Z,0.90
2022-08-01T14:04:26.295Z,0.95
2022-08-01T14:06:54.302Z,1.20
2022-08-01T14:09:24.675Z,0.90
2022-08-01T14:11:53.058Z,1.00
2022-08-01T14:14:20.182Z,1.27
2022-08-01T14:16:47.995Z,1.50
2022-08-01T14:19:17.704Z,1.20
2022-08-01T14:21:47.304Z,1.20
2022-08-01T14:24:14.242Z,1.25
2022-08-01T14:26:43.645Z,1.30
2022-08-01T14:29:10.618Z,1.20
2022-08-01T14:31:37.604Z,1.30
2022-08-01T14:34:04.549Z,1.15
2022-08-01T14:36:38.106Z,1.10
2022-08-01T14:39:05.817Z,1.05
2022-08-01T14:41:35.750Z,1.52
2022-08-01T14:44:03.360Z,1.08
2022-08-01T14:46:31.642Z,1.35
2022-08-01T14:49:01.381Z,1.17
2022-08-01T14:51:28.361Z,1.10
2022-08-01T14:53:55.384Z,1.20
2022-08-01T14:56:23.246Z,0.88
2022-08-01T14:58:50.219Z,0.90
2022-08-01T15:01:19.042Z,1.00
2022-08-01T15:03:47.452Z,1.00
2022-08-01T15:06:15.517Z,1.30
2022-08-01T15:08:42.502Z,1.10
2022-08-01T15:11:09.772Z,1.23
2022-08-01T15:13:42.167Z,1.00
2022-08-01T15:16:09.698Z,1.02
2022-08-01T15:18:39.193Z,1.30
2022-08-01T15:21:07.254Z,1.20
2022-08-01T15:23:34.080Z,1.20
2022-08-01T15:26:01.026Z,0.90
2022-08-01T15:28:27.916Z,1.27
2022-08-01T15:30:54.769Z,1.40
2022-08-01T15:33:22.762Z,1.15
2022-08-01T15:35:53.011Z,1.20
2022-08-01T15:38:20.410Z,1.00
2022-08-01T15:40:47.395Z,1.13
2022-08-01T15:43:15.916Z,0.95
2022-08-01T15:45:47.718Z,1.00
2022-08-01T15:48:16.385Z,0.98
2022-08-01T15:50:44.641Z,1.02
2022-08-01T15:53:13.722Z,1.10
2022-08-01T15:55:40.690Z,1.00
2022-08-01T15:58:11.499Z,1.10
2022-08-01T16:00:40.262Z,1.45
2022-08-01T16:03:10.473Z,1.20
2022-08-01T16:05:42.954Z,1.10
2022-08-01T16:08:14.227Z,1.25
2022-08-01T16:10:42.026Z,1.25
2022-08-01T16:13:09.781Z,1.20
2022-08-01T16:15:38.054Z,1.20
2022-08-01T16:18:06.901Z,1.30
2022-08-01T16:20:35.690Z,1.13
2022-08-01T16:23:02.769Z,1.35
2022-08-01T16:25:29.642Z,1.30
2022-08-01T16:27:57.679Z,1.40
2022-08-01T16:30:24.727Z,1.15
2022-08-01T16:32:59.180Z,1.30
2022-08-01T16:35:35.854Z,1.00
2022-08-01T16:38:09.565Z,0.93
2022-08-01T16:40:47.748Z,1.00
2022-08-01T16:43:19.230Z,1.40
2022-08-01T16:45:58.783Z,0.90
2022-08-01T16:48:27.113Z,1.10
2022-08-01T16:50:54.978Z,1.40
2022-08-01T16:53:23.359Z,1.10
2022-08-01T16:55:51.051Z,1.25
2022-08-01T16:58:27.562Z,1.23
2022-08-01T17:01:59.697Z,1.45
2022-08-01T17:03:52.389Z,1.20
2022-08-01T17:06:22.666Z,3.10
2022-08-01T17:08:50.243Z,2.10
2022-08-01T17:11:17.251Z,1.20
2022-08-01T17:13:44.397Z,1.33
2022-08-01T17:16:11.934Z,1.10
2022-08-01T17:18:40.234Z,1.08
2022-08-01T17:21:09.945Z,1.10
2022-08-01T17:23:37.465Z,1.20
2022-08-01T17:26:05.579Z,1.20
2022-08-01T17:28:33.538Z,1.25
2022-08-01T17:31:03.626Z,1.13
2022-08-01T17:33:44.587Z,1.20
2022-08-01T17:36:17.620Z,1.10
2022-08-01T17:38:46.996Z,1.02
2022-08-01T17:41:15.113Z,1.40
2022-08-01T17:43:42.253Z,1.30
2022-08-01T17:46:10.311Z,1.30
2022-08-01T17:48:37.337Z,1.25
2022-08-01T17:51:06.979Z,1.20
2022-08-01T17:53:57.450Z,1.67
2022-08-01T17:56:26.538Z,1.58
2022-08-01T17:58:56.665Z,1.50
2022-08-01T18:01:28.583Z,1.67
2022-08-01T18:03:57.464Z,1.00
2022-08-01T18:06:26.410Z,1.50
2022-08-01T18:08:56.587Z,1.40
2022-08-01T18:11:27.906Z,1.35
2022-08-01T18:13:59.771Z,1.40
2022-08-01T18:16:27.293Z,1.30
2022-08-01T18:18:55.939Z,1.40
2022-08-01T18:21:22.895Z,1.50
2022-08-01T18:23:52.912Z,1.60
2022-08-01T18:26:23.086Z,1.50
2022-08-01T18:28:53.302Z,1.60
2022-08-01T18:31:21.746Z,1.45
2022-08-01T18:33:56.468Z,1.55
2022-08-01T18:36:33.014Z,1.73
2022-08-01T18:39:10.352Z,1.55
2022-08-01T18:41:40.263Z,1.10
2022-08-01T18:44:10.177Z,1.35
2022-08-01T18:46:38.810Z,1.63
2022-08-01T18:49:07.858Z,1.23
2022-08-01T18:51:43.954Z,1.40
2022-08-01T18:54:13.701Z,1.40
2022-08-01T18:56:43.146Z,1.33
2022-08-01T18:59:10.978Z,1.17
2022-08-01T19:01:39.705Z,1.25
2022-08-01T19:04:07.208Z,1.27
2022-08-01T19:06:34.395Z,1.60
2022-08-01T19:09:02.834Z,1.30
2022-08-01T19:11:31.611Z,1.40
2022-08-01T19:14:00.557Z,1.60
2022-08-01T19:16:29.782Z,1.35
2022-08-01T19:18:56.755Z,1.15
2022-08-01T19:21:25.932Z,1.80
2022-08-01T19:24:11.590Z,1.83
2022-08-01T19:26:40.390Z,1.73
2022-08-01T19:29:15.304Z,2.03
2022-08-01T19:31:46.979Z,1.83
2022-08-01T19:34:18.249Z,1.50
2022-08-01T19:36:47.679Z,1.55
2022-08-01T19:39:16.938Z,1.50
2022-08-01T19:41:48.451Z,1.70
2022-08-01T19:44:17.916Z,1.45
2022-08-01T19:46:45.487Z,1.60
2022-08-01T19:49:22.335Z,1.50
2022-08-01T19:51:52.488Z,2.00
2022-08-01T19:54:25.922Z,1.83
2022-08-01T19:56:54.061Z,2.05
2022-08-01T20:02:29.964Z,1.77
2022-08-01T20:05:00.669Z,2.03
2022-08-01T20:07:32.676Z,1.90
2022-08-01T20:10:00.295Z,1.90
2022-08-01T20:12:28.805Z,1.73
2022-08-01T20:14:56.203Z,1.80
2022-08-01T20:17:25.078Z,1.88
2022-08-01T20:19:52.095Z,1.80
2022-08-01T20:22:25.474Z,2.00
2022-08-01T20:24:57.672Z,1.80
2022-08-01T20:27:27.363Z,2.25
2022-08-01T20:30:01.559Z,2.20
2022-08-01T20:32:34.228Z,2.38
2022-08-01T20:35:06.756Z,2.00
2022-08-01T20:38:05.763Z,2.85
2022-08-01T20:40:28.176Z,2.45
2022-08-01T20:42:57.089Z,2.72
2022-08-01T20:45:27.306Z,2.47
2022-08-01T20:47:55.810Z,2.65
2022-08-01T20:50:53.006Z,2.72
2022-08-01T20:53:23.730Z,2.25
2022-08-01T20:55:59.487Z,2.50
2022-08-01T20:58:44.814Z,2.17
2022-08-01T21:01:15.549Z,2.30
2022-08-01T21:04:23.218Z,2.42
2022-08-01T21:06:55.391Z,2.28
2022-08-01T21:09:24.300Z,2.70
2022-08-01T21:12:02.581Z,2.20
2022-08-01T21:14:55.495Z,2.17
2022-08-01T21:17:38.776Z,2.90
2022-08-01T21:20:08.235Z,2.35
2022-08-01T21:22:51.793Z,2.40
2022-08-01T21:25:26.688Z,2.80
2022-08-01T21:27:55.389Z,2.20
2022-08-01T21:30:25.464Z,2.20
2022-08-01T21:32:54.348Z,2.42
2022-08-01T21:35:23.832Z,2.33
2022-08-01T21:37:52.305Z,3.05
2022-08-01T21:40:24.062Z,2.50
2022-08-01T21:42:52.527Z,2.83
2022-08-01T21:45:25.344Z,2.65
2022-08-01T21:47:53.102Z,3.50
2022-08-01T21:50:22.370Z,3.40
2022-08-01T21:53:05.074Z,2.92
2022-08-01T21:55:52.122Z,3.05
2022-08-01T21:58:23.961Z,3.10
2022-08-01T22:01:01.752Z,3.20
2022-08-01T22:03:43.437Z,2.90
2022-08-01T22:06:16.275Z,2.45
2022-08-01T22:08:54.657Z,3.17
2022-08-01T22:11:33.994Z,2.40
2022-08-01T22:14:06.181Z,2.80
2022-08-01T22:16:34.660Z,2.50
2022-08-01T22:19:03.127Z,3.10
2022-08-01T22:21:30.487Z,2.80
2022-08-01T22:23:59.234Z,2.95
2022-08-01T22:26:29.664Z,3.15
2022-08-01T22:28:59.920Z,2.90
2022-08-01T22:31:27.576Z,2.85
2022-08-01T22:33:56.328Z,2.95
2022-08-01T22:36:23.849Z,2.97
2022-08-01T22:38:52.045Z,3.08
2022-08-01T22:41:27.916Z,2.67
2022-08-01T22:44:09.405Z,2.83
2022-08-01T22:47:03.456Z,2.88
2022-08-01T22:49:55.389Z,3.20
2022-08-01T22:52:29.656Z,2.70
2022-08-01T22:55:12.091Z,2.80
2022-08-01T22:57:51.333Z,2.92
2022-08-01T23:00:18.848Z,2.72
2022-08-01T23:02:48.380Z,2.75
2022-08-01T23:05:21.889Z,3.20
2022-08-01T23:07:55.089Z,3.20
2022-08-01T23:10:24.069Z,2.90
2022-08-01T23:12:53.474Z,3.10
2022-08-01T23:15:23.236Z,2.95
2022-08-01T23:17:50.618Z,2.92
2022-08-01T23:20:18.969Z,3.42
2022-08-01T23:22:49.273Z,2.90
2022-08-01T23:25:17.718Z,2.83
2022-08-01T23:27:55.945Z,2.90
2022-08-01T23:30:33.675Z,2.85
2022-08-01T23:33:01.883Z,3.15
2022-08-01T23:35:29.686Z,3.10
2022-08-01T23:38:01.908Z,3.13
2022-08-01T23:40:34.083Z,3.00
2022-08-01T23:43:02.474Z,3.20
2022-08-01T23:46:01.713Z,3.00
2022-08-01T23:48:18.308Z,3.30
2022-08-01T23:50:45.727Z,3.00
2022-08-01T23:53:14.182Z,3.70
2022-08-01T23:55:44.427Z,3.35
2022-08-01T23:58:11.740Z,3.03
